createdAt,value
2022-10-08T00:00:12.599Z,2.50
2022-10-08T00:00:44.437Z,1.80
2022-10-08T00:01:16.675Z,2.05
2022-10-08T00:01:48.108Z,1.92
2022-10-08T00:02:19.507Z,2.00
2022-10-08T00:02:52.969Z,1.47
2022-10-08T00:03:25.431Z,1.90
2022-10-08T00:03:56.878Z,2.50
2022-10-08T00:04:28.422Z,1.52
2022-10-08T00:04:59.852Z,1.70
2022-10-08T00:05:31.192Z,1.80
2022-10-08T00:06:07.282Z,1.92
2022-10-08T00:06:38.617Z,1.90
2022-10-08T00:07:09.945Z,1.92
2022-10-08T00:07:41.363Z,2.13
2022-10-08T00:08:12.695Z,2.38
2022-10-08T00:08:45.128Z,2.10
2022-10-08T00:09:16.570Z,1.90
2022-10-08T00:09:47.946Z,2.10
2022-10-08T00:10:19.345Z,1.40
2022-10-08T00:10:54.622Z,1.80
2022-10-08T00:11:27.300Z,2.15
2022-10-08T00:11:58.691Z,2.20
2022-10-08T00:12:30.064Z,2.17
2022-10-08T00:13:02.166Z,1.98
2022-10-08T00:13:34.319Z,2.30
2022-10-08T00:14:06.831Z,1.55
2022-10-08T00:14:38.193Z,1.77
2022-10-08T00:15:09.808Z,1.67
2022-10-08T00:15:41.195Z,1.70
2022-10-08T00:16:23.637Z,2.05
2022-10-08T00:16:55.045Z,1.70
2022-10-08T00:17:26.838Z,1.63
2022-10-08T00:17:58.259Z,2.17
2022-10-08T00:18:29.645Z,2.50
2022-10-08T00:19:02.522Z,1.95
2022-10-08T00:19:34.115Z,1.77
2022-10-08T00:20:05.749Z,2.00
2022-10-08T00:20:37.184Z,2.17
2022-10-08T00:21:09.964Z,1.80
2022-10-08T00:21:42.169Z,1.80
2022-10-08T00:22:13.544Z,2.30
2022-10-08T00:22:45.207Z,1.73
2022-10-08T00:23:16.790Z,1.95
2022-10-08T00:23:49.204Z,2.65
2022-10-08T00:24:20.625Z,2.28
2022-10-08T00:24:52.013Z,1.70
2022-10-08T00:25:23.370Z,2.28
2022-10-08T00:25:54.730Z,2.30
2022-10-08T00:26:27.091Z,1.90
2022-10-08T00:26:58.624Z,2.20
2022-10-08T00:27:30.018Z,2.13
2022-10-08T00:28:01.427Z,1.52
2022-10-08T00:28:33.938Z,2.67
2022-10-08T00:29:06.035Z,2.20
2022-10-08T00:29:37.413Z,1.60
2022-10-08T00:30:09.100Z,2.00
2022-10-08T00:30:41.003Z,2.05
2022-10-08T00:31:14.215Z,2.33
2022-10-08T00:31:47.323Z,2.08
2022-10-08T00:32:18.788Z,1.75
2022-10-08T00:32:50.256Z,3.20
2022-10-08T00:33:21.769Z,2.03
2022-10-08T00:33:54.024Z,1.92
2022-10-08T00:34:25.411Z,2.28
2022-10-08T00:34:56.792Z,2.30
2022-10-08T00:35:28.182Z,2.28
2022-10-08T00:36:07.302Z,1.90
2022-10-08T00:36:39.457Z,2.60
2022-10-08T00:37:10.990Z,2.05
2022-10-08T00:37:42.436Z,2.35
2022-10-08T00:38:13.820Z,2.10
2022-10-08T00:38:45.209Z,2.65
2022-10-08T00:39:17.919Z,2.30
2022-10-08T00:39:49.309Z,2.78
2022-10-08T00:40:20.695Z,2.13
2022-10-08T00:40:52.080Z,2.17
2022-10-08T00:41:25.058Z,2.80
2022-10-08T00:41:56.643Z,2.17
2022-10-08T00:42:28.086Z,2.05
2022-10-08T00:43:00.437Z,2.45
2022-10-08T00:43:42.679Z,2.50
2022-10-08T00:44:32.547Z,2.30
2022-10-08T00:45:04.049Z,2.33
2022-10-08T00:45:35.497Z,2.47
2022-10-08T00:46:14.813Z,2.25
2022-10-08T00:46:48.703Z,2.65
2022-10-08T00:47:32.312Z,2.35
2022-10-08T00:48:04.060Z,1.85
2022-10-08T00:48:35.455Z,2.53
2022-10-08T00:49:09.899Z,3.08
2022-10-08T00:49:41.496Z,2.22
2022-10-08T00:50:18.408Z,1.92
2022-10-08T00:50:49.795Z,3.03
2022-10-08T00:51:21.388Z,2.50
2022-10-08T00:51:54.580Z,2.13
2022-10-08T00:52:28.510Z,2.15
2022-10-08T00:53:01.742Z,1.70
2022-10-08T00:53:34.259Z,2.38
2022-10-08T00:54:06.000Z,2.50
2022-10-08T00:54:37.383Z,2.05
2022-10-08T00:55:09.685Z,2.33
2022-10-08T00:55:43.630Z,2.00
2022-10-08T00:56:15.577Z,1.80
2022-10-08T00:56:52.144Z,1.85
2022-10-08T00:57:23.579Z,1.80
2022-10-08T00:57:58.653Z,1.90
2022-10-08T00:58:30.362Z,2.50
2022-10-08T00:59:01.898Z,2.10
2022-10-08T00:59:33.424Z,2.20
2022-10-08T01:00:09.425Z,2.27
2022-10-08T01:00:41.028Z,1.70
2022-10-08T01:01:12.820Z,1.80
2022-10-08T01:01:44.596Z,1.92
2022-10-08T01:02:16.093Z,2.00
2022-10-08T01:02:47.833Z,2.15
2022-10-08T01:03:19.637Z,2.40
2022-10-08T01:03:51.019Z,1.70
2022-10-08T01:04:22.506Z,1.80
2022-10-08T01:04:53.897Z,2.33
2022-10-08T01:05:40.130Z,2.05
2022-10-08T01:06:23.811Z,2.22
2022-10-08T01:07:02.203Z,2.58
2022-10-08T01:07:59.606Z,1.92
2022-10-08T01:08:37.437Z,2.10
2022-10-08T01:09:18.882Z,2.10
2022-10-08T01:10:03.968Z,2.00
2022-10-08T01:10:57.935Z,2.47
2022-10-08T01:11:32.377Z,2.22
2022-10-08T01:12:15.820Z,2.53
2022-10-08T01:12:55.584Z,2.63
2022-10-08T01:13:53.146Z,2.00
2022-10-08T01:14:39.486Z,2.67
2022-10-08T01:15:49.318Z,2.20
2022-10-08T01:16:28.077Z,2.10
2022-10-08T01:17:17.889Z,1.75
2022-10-08T01:18:01.308Z,2.03
2022-10-08T01:18:32.698Z,2.00
2022-10-08T01:19:06.700Z,2.33
2022-10-08T01:19:56.621Z,2.40
2022-10-08T01:20:30.824Z,2.10
2022-10-08T01:21:20.692Z,1.98
2022-10-08T01:22:04.004Z,2.15
2022-10-08T01:22:35.347Z,2.03
2022-10-08T01:23:25.511Z,2.05
2022-10-08T01:24:07.350Z,2.00
2022-10-08T01:24:52.811Z,2.15
2022-10-08T01:25:30.337Z,2.22
2022-10-08T01:26:17.083Z,1.83
2022-10-08T01:27:01.481Z,2.53
2022-10-08T01:27:37.273Z,2.70
2022-10-08T01:28:08.633Z,2.10
2022-10-08T01:28:56.733Z,2.45
2022-10-08T01:29:29.657Z,1.90
2022-10-08T01:30:02.227Z,2.50
2022-10-08T01:30:35.345Z,2.20
2022-10-08T01:31:13.675Z,2.10
2022-10-08T01:31:49.350Z,2.25
2022-10-08T01:32:22.201Z,2.42
2022-10-08T01:33:00.139Z,1.98
2022-10-08T01:33:31.478Z,2.08
2022-10-08T01:34:08.749Z,2.60
2022-10-08T01:34:50.686Z,1.85
2022-10-08T01:35:26.268Z,2.13
2022-10-08T01:35:59.149Z,2.00
2022-10-08T01:36:33.188Z,1.80
2022-10-08T01:37:06.514Z,2.13
2022-10-08T01:37:40.614Z,2.10
2022-10-08T01:38:15.128Z,1.80
2022-10-08T01:38:49.890Z,2.10
2022-10-08T01:39:25.329Z,1.80
2022-10-08T01:39:58.236Z,2.40
2022-10-08T01:40:32.245Z,1.88
2022-10-08T01:41:06.237Z,2.03
2022-10-08T01:41:38.854Z,2.17
2022-10-08T01:42:11.011Z,1.83
2022-10-08T01:42:42.391Z,2.35
2022-10-08T01:43:14.804Z,1.63
2022-10-08T01:43:49.164Z,1.92
2022-10-08T01:44:26.965Z,2.05
2022-10-08T01:45:03.302Z,2.10
2022-10-08T01:45:38.235Z,2.10
2022-10-08T01:46:17.479Z,2.83
2022-10-08T01:46:49.959Z,2.13
2022-10-08T01:47:22.104Z,2.00
2022-10-08T01:47:54.568Z,2.13
2022-10-08T01:48:28.764Z,2.35
2022-10-08T01:49:02.936Z,2.50
2022-10-08T01:49:38.554Z,2.40
2022-10-08T01:50:12.578Z,2.15
2022-10-08T01:50:46.498Z,2.25
2022-10-08T01:51:21.006Z,2.15
2022-10-08T01:51:57.561Z,1.90
2022-10-08T01:52:32.193Z,2.40
2022-10-08T01:53:06.915Z,2.35
2022-10-08T01:53:40.481Z,2.40
2022-10-08T01:54:13.927Z,1.90
2022-10-08T01:54:47.500Z,2.08
2022-10-08T01:55:27.241Z,2.20
2022-10-08T01:56:00.818Z,1.63
2022-10-08T01:56:33.547Z,2.40
2022-10-08T01:57:05.942Z,2.25
2022-10-08T01:57:37.910Z,2.05
2022-10-08T01:58:12.357Z,2.60
2022-10-08T01:58:48.266Z,2.13
2022-10-08T01:59:31.767Z,3.00
2022-10-08T02:00:06.352Z,2.17
2022-10-08T02:00:38.377Z,2.25
2022-10-08T02:01:11.882Z,3.03
2022-10-08T02:01:58.823Z,2.47
2022-10-08T02:02:30.442Z,2.53
2022-10-08T02:03:02.018Z,2.28
2022-10-08T02:03:33.390Z,2.47
2022-10-08T02:04:04.819Z,2.47
2022-10-08T02:04:36.416Z,2.22
2022-10-08T02:05:08.126Z,2.80
2022-10-08T02:05:42.006Z,2.35
2022-10-08T02:06:13.381Z,2.80
2022-10-08T02:06:48.461Z,2.15
2022-10-08T02:07:24.398Z,2.25
2022-10-08T02:07:55.801Z,2.72
2022-10-08T02:08:27.383Z,1.63
2022-10-08T02:08:58.921Z,2.40
2022-10-08T02:09:32.192Z,2.60
2022-10-08T02:10:08.324Z,2.40
2022-10-08T02:10:39.897Z,2.30
2022-10-08T02:11:11.377Z,2.55
2022-10-08T02:11:42.705Z,2.60
2022-10-08T02:12:14.206Z,3.42
2022-10-08T02:12:46.149Z,2.33
2022-10-08T02:13:17.904Z,2.23
2022-10-08T02:13:49.285Z,2.47
2022-10-08T02:14:22.674Z,2.33
2022-10-08T02:14:55.014Z,2.58
2022-10-08T02:15:26.359Z,2.20
2022-10-08T02:16:05.888Z,2.50
2022-10-08T02:16:41.713Z,2.30
2022-10-08T02:17:20.341Z,2.25
2022-10-08T02:17:51.725Z,3.23
2022-10-08T02:18:30.483Z,2.10
2022-10-08T02:19:10.930Z,2.53
2022-10-08T02:20:05.470Z,2.63
2022-10-08T02:20:43.862Z,2.70
2022-10-08T02:21:19.278Z,1.77
2022-10-08T02:21:50.823Z,2.30
2022-10-08T02:22:24.612Z,2.55
2022-10-08T02:22:58.101Z,2.10
2022-10-08T02:23:34.798Z,2.53
2022-10-08T02:24:16.504Z,2.95
2022-10-08T02:24:52.781Z,2.33
2022-10-08T02:25:33.093Z,2.58
2022-10-08T02:26:06.367Z,2.97
2022-10-08T02:26:42.464Z,2.50
2022-10-08T02:27:15.131Z,3.25
2022-10-08T02:27:49.579Z,2.78
2022-10-08T02:28:39.509Z,2.55
2022-10-08T02:29:15.245Z,2.20
2022-10-08T02:29:52.003Z,2.30
2022-10-08T02:30:24.099Z,2.38
2022-10-08T02:30:57.302Z,2.03
2022-10-08T02:31:35.134Z,2.83
2022-10-08T02:32:09.775Z,2.70
2022-10-08T02:32:50.306Z,2.30
2022-10-08T02:33:26.685Z,1.90
2022-10-08T02:34:03.558Z,2.30
2022-10-08T02:34:39.963Z,2.67
2022-10-08T02:35:16.974Z,2.40
2022-10-08T02:35:50.801Z,2.85
2022-10-08T02:36:33.086Z,2.40
2022-10-08T02:37:07.833Z,2.78
2022-10-08T02:37:45.104Z,2.33
2022-10-08T02:38:18.793Z,2.15
2022-10-08T02:38:52.937Z,2.55
2022-10-08T02:39:27.915Z,1.92
2022-10-08T02:40:04.893Z,2.85
2022-10-08T02:40:38.980Z,2.90
2022-10-08T02:41:11.338Z,2.72
2022-10-08T02:41:44.894Z,2.80
2022-10-08T02:42:17.895Z,2.95
2022-10-08T02:42:51.389Z,3.42
2022-10-08T02:43:25.761Z,2.85
2022-10-08T02:43:59.066Z,2.38
2022-10-08T02:44:33.600Z,2.80
2022-10-08T02:45:16.707Z,2.60
2022-10-08T02:45:55.056Z,2.53
2022-10-08T02:46:28.067Z,2.10
2022-10-08T02:47:00.710Z,2.55
2022-10-08T02:47:34.029Z,3.03
2022-10-08T02:48:08.264Z,2.30
2022-10-08T02:48:43.346Z,3.40
2022-10-08T02:49:17.689Z,3.22
2022-10-08T02:49:52.561Z,2.80
2022-10-08T02:50:26.356Z,2.58
2022-10-08T02:50:59.186Z,2.65
2022-10-08T02:51:31.492Z,3.40
2022-10-08T02:52:03.159Z,2.80
2022-10-08T02:52:36.623Z,2.90
2022-10-08T02:53:08.055Z,2.75
2022-10-08T02:53:40.096Z,2.65
2022-10-08T02:54:11.945Z,2.65
2022-10-08T02:54:44.356Z,2.70
2022-10-08T02:55:23.744Z,2.75
2022-10-08T02:55:55.115Z,2.75
2022-10-08T02:56:33.821Z,2.83
2022-10-08T02:57:09.972Z,2.28
2022-10-08T02:57:44.178Z,3.10
2022-10-08T02:58:15.971Z,2.65
2022-10-08T02:58:47.516Z,2.22
2022-10-08T02:59:19.869Z,3.15
2022-10-08T02:59:51.411Z,2.92
2022-10-08T03:00:23.098Z,2.72
2022-10-08T03:01:00.575Z,2.85
2022-10-08T03:01:36.879Z,2.77
2022-10-08T03:02:09.260Z,2.70
2022-10-08T03:02:48.150Z,2.65
2022-10-08T03:03:40.476Z,2.57
2022-10-08T03:04:32.402Z,2.92
2022-10-08T03:05:08.962Z,2.85
2022-10-08T03:05:41.980Z,2.78
2022-10-08T03:06:14.088Z,3.00
2022-10-08T03:06:46.734Z,3.05
2022-10-08T03:07:18.235Z,2.38
2022-10-08T03:07:51.109Z,3.30
2022-10-08T03:08:22.511Z,2.85
2022-10-08T03:08:55.956Z,3.35
2022-10-08T03:09:30.784Z,3.00
2022-10-08T03:10:06.193Z,2.67
2022-10-08T03:10:39.097Z,3.75
2022-10-08T03:11:11.133Z,2.60
2022-10-08T03:11:43.100Z,2.42
2022-10-08T03:12:14.538Z,2.95
2022-10-08T03:12:46.626Z,3.10
2022-10-08T03:13:18.890Z,2.35
2022-10-08T03:13:50.953Z,2.95
2022-10-08T03:14:23.363Z,3.10
2022-10-08T03:14:54.748Z,3.13
2022-10-08T03:15:26.187Z,2.78
2022-10-08T03:15:57.874Z,3.35
2022-10-08T03:16:35.448Z,3.17
2022-10-08T03:17:07.969Z,2.83
2022-10-08T03:17:41.351Z,3.08
2022-10-08T03:18:12.988Z,4.00
2022-10-08T03:18:44.792Z,3.05
2022-10-08T03:19:17.722Z,2.97
2022-10-08T03:19:49.099Z,2.67
2022-10-08T03:20:20.537Z,3.22
2022-10-08T03:20:54.333Z,3.55
2022-10-08T03:21:26.695Z,2.97
2022-10-08T03:21:58.123Z,3.10
2022-10-08T03:22:30.482Z,3.10
2022-10-08T03:23:02.035Z,3.47
2022-10-08T03:23:33.457Z,3.20
2022-10-08T03:24:05.769Z,2.35
2022-10-08T03:24:37.215Z,3.47
2022-10-08T03:25:08.707Z,3.17
2022-10-08T03:25:40.047Z,2.33
2022-10-08T03:26:11.416Z,2.60
2022-10-08T03:26:42.996Z,3.13
2022-10-08T03:27:14.390Z,3.10
2022-10-08T03:27:45.779Z,3.03
2022-10-08T03:28:17.145Z,3.42
2022-10-08T03:28:48.597Z,2.90
2022-10-08T03:29:20.237Z,3.28
2022-10-08T03:29:51.631Z,3.70
2022-10-08T03:30:22.969Z,3.22
2022-10-08T03:30:54.448Z,2.90
2022-10-08T03:31:25.843Z,3.67
2022-10-08T03:31:57.225Z,3.20
2022-10-08T03:32:28.609Z,2.80
2022-10-08T03:33:00.008Z,3.53
2022-10-08T03:33:31.740Z,3.15
2022-10-08T03:34:03.127Z,2.88
2022-10-08T03:34:34.510Z,3.78
2022-10-08T03:35:06.214Z,3.25
2022-10-08T03:35:37.585Z,3.22
2022-10-08T03:36:08.991Z,3.50
2022-10-08T03:36:40.368Z,3.03
2022-10-08T03:37:11.705Z,3.45
2022-10-08T03:37:43.085Z,3.30
2022-10-08T03:38:15.148Z,2.90
2022-10-08T03:38:46.693Z,3.15
2022-10-08T03:39:18.067Z,3.35
2022-10-08T03:39:49.460Z,3.40
2022-10-08T03:40:21.568Z,3.38
2022-10-08T03:40:53.971Z,3.33
2022-10-08T03:41:25.397Z,2.97
2022-10-08T03:41:56.841Z,3.83
2022-10-08T03:42:28.222Z,3.35
2022-10-08T03:42:59.608Z,3.10
2022-10-08T03:43:31.959Z,3.65
2022-10-08T03:44:03.464Z,3.20
2022-10-08T03:44:34.890Z,3.30
2022-10-08T03:45:06.483Z,3.05
2022-10-08T03:45:37.921Z,3.30
2022-10-08T03:46:09.948Z,3.30
2022-10-08T03:46:41.362Z,3.33
2022-10-08T03:47:12.742Z,3.25
2022-10-08T03:47:44.138Z,3.47
2022-10-08T03:48:15.519Z,3.80
2022-10-08T03:48:48.699Z,3.35
2022-10-08T03:49:20.038Z,2.75
2022-10-08T03:49:51.418Z,3.70
2022-10-08T03:50:22.804Z,3.53
2022-10-08T03:50:55.312Z,3.17
2022-10-08T03:51:26.812Z,3.50
2022-10-08T03:51:58.243Z,3.47
2022-10-08T03:52:30.353Z,2.90
2022-10-08T03:53:01.734Z,3.08
2022-10-08T03:53:33.931Z,3.90
2022-10-08T03:54:05.337Z,3.90
2022-10-08T03:54:36.863Z,3.53
2022-10-08T03:55:08.403Z,3.72
2022-10-08T03:55:39.791Z,3.08
2022-10-08T03:56:12.970Z,3.42
2022-10-08T03:56:44.346Z,3.08
2022-10-08T03:57:15.688Z,3.10
2022-10-08T03:57:47.062Z,3.40
2022-10-08T03:58:18.971Z,3.43
2022-10-08T03:58:54.963Z,2.92
2022-10-08T03:59:26.353Z,3.65
2022-10-08T03:59:57.737Z,3.65
2022-10-08T04:00:29.123Z,2.90
2022-10-08T04:01:01.618Z,3.15
2022-10-08T04:01:33.113Z,3.00
2022-10-08T04:02:04.565Z,3.03
2022-10-08T04:02:36.017Z,3.72
2022-10-08T04:03:07.839Z,3.70
2022-10-08T04:03:39.487Z,3.03
2022-10-08T04:04:10.825Z,3.20
2022-10-08T04:04:42.154Z,3.47
2022-10-08T04:05:13.595Z,3.38
2022-10-08T04:05:49.172Z,3.20
2022-10-08T04:06:20.932Z,3.33
2022-10-08T04:06:52.410Z,3.60
2022-10-08T04:07:23.798Z,3.70
2022-10-08T04:07:55.186Z,3.70
2022-10-08T04:08:26.620Z,3.20
2022-10-08T04:08:58.005Z,3.90
2022-10-08T04:09:29.397Z,2.97
2022-10-08T04:10:00.785Z,3.45
2022-10-08T04:10:32.121Z,3.40
2022-10-08T04:11:04.730Z,3.60
2022-10-08T04:11:36.098Z,3.85
2022-10-08T04:12:07.503Z,3.97
2022-10-08T04:12:38.942Z,3.53
2022-10-08T04:13:10.324Z,3.45
2022-10-08T04:13:42.276Z,3.55
2022-10-08T04:14:13.604Z,3.13
2022-10-08T04:14:45.012Z,3.58
2022-10-08T04:15:16.717Z,3.92
2022-10-08T04:15:48.234Z,3.83
2022-10-08T04:16:19.813Z,3.65
2022-10-08T04:16:51.305Z,3.45
2022-10-08T04:17:22.692Z,3.28
2022-10-08T04:17:54.076Z,3.47
2022-10-08T04:18:26.232Z,3.65
2022-10-08T04:18:57.632Z,3.47
2022-10-08T04:19:29.027Z,2.95
2022-10-08T04:20:00.451Z,4.00
2022-10-08T04:20:32.453Z,3.72
2022-10-08T04:21:13.911Z,3.55
2022-10-08T04:21:45.301Z,3.60
2022-10-08T04:22:16.737Z,3.33
2022-10-08T04:22:48.438Z,3.20
2022-10-08T04:23:20.181Z,3.55
2022-10-08T04:23:51.559Z,3.80
2022-10-08T04:24:22.998Z,3.50
2022-10-08T04:24:54.331Z,3.30
2022-10-08T04:25:25.716Z,3.63
2022-10-08T04:25:57.103Z,3.40
2022-10-08T04:26:28.549Z,3.17
2022-10-08T04:26:59.927Z,3.30
2022-10-08T04:27:31.324Z,3.30
2022-10-08T04:28:03.571Z,3.97
2022-10-08T04:28:39.287Z,3.45
2022-10-08T04:29:10.849Z,3.58
2022-10-08T04:29:42.236Z,3.67
2022-10-08T04:30:13.675Z,3.88
2022-10-08T04:30:54.552Z,3.47
2022-10-08T04:31:26.062Z,4.00
2022-10-08T04:31:57.550Z,3.80
2022-10-08T04:32:28.945Z,3.75
2022-10-08T04:33:00.285Z,3.97
2022-10-08T04:33:32.994Z,3.35
2022-10-08T04:34:04.436Z,4.53
2022-10-08T04:34:35.771Z,3.40
2022-10-08T04:35:07.370Z,3.83
2022-10-08T04:35:38.795Z,3.95
2022-10-08T04:36:11.229Z,3.92
2022-10-08T04:36:42.643Z,3.58
2022-10-08T04:37:14.029Z,4.18
2022-10-08T04:37:45.424Z,3.75
2022-10-08T04:38:16.853Z,3.10
2022-10-08T04:38:48.558Z,4.13
2022-10-08T04:39:19.944Z,3.65
2022-10-08T04:39:51.394Z,4.60
2022-10-08T04:40:22.806Z,3.95
2022-10-08T04:41:10.531Z,3.92
2022-10-08T04:41:41.914Z,3.65
2022-10-08T04:42:13.299Z,3.85
2022-10-08T04:42:44.937Z,4.22
2022-10-08T04:43:16.595Z,4.35
2022-10-08T04:43:47.969Z,3.67
2022-10-08T04:44:19.408Z,4.00
2022-10-08T04:44:50.807Z,4.40
2022-10-08T04:45:22.187Z,4.25
2022-10-08T04:45:53.618Z,4.05
2022-10-08T04:46:25.109Z,3.67
2022-10-08T04:46:56.541Z,3.55
2022-10-08T04:47:27.933Z,3.72
2022-10-08T04:47:59.260Z,3.63
2022-10-08T04:48:30.655Z,4.32
2022-10-08T04:49:02.083Z,4.20
2022-10-08T04:49:33.508Z,4.57
2022-10-08T04:50:05.108Z,3.80
2022-10-08T04:50:36.659Z,4.13
2022-10-08T04:51:10.833Z,3.22
2022-10-08T04:51:42.442Z,4.05
2022-10-08T04:52:13.810Z,3.60
2022-10-08T04:52:45.490Z,4.15
2022-10-08T04:53:17.063Z,4.00
2022-10-08T04:53:48.559Z,3.95
2022-10-08T04:54:19.931Z,3.72
2022-10-08T04:54:51.281Z,3.90
2022-10-08T04:55:22.667Z,4.07
2022-10-08T04:55:54.885Z,3.75
2022-10-08T04:56:27.600Z,4.20
2022-10-08T04:56:58.980Z,5.13
2022-10-08T04:57:31.278Z,4.43
2022-10-08T04:58:02.869Z,4.40
2022-10-08T04:58:34.316Z,4.18
2022-10-08T04:59:05.738Z,4.40
2022-10-08T04:59:49.046Z,4.30
2022-10-08T05:00:28.547Z,4.20
2022-10-08T05:01:02.786Z,4.30
2022-10-08T05:01:34.270Z,4.40
2022-10-08T05:02:05.805Z,3.85
2022-10-08T05:02:37.208Z,4.20
2022-10-08T05:03:08.708Z,4.35
2022-10-08T05:03:41.163Z,4.40
2022-10-08T05:04:12.553Z,4.43
2022-10-08T05:04:43.970Z,3.50
2022-10-08T05:05:15.377Z,4.25
2022-10-08T05:05:46.799Z,4.40
2022-10-08T05:06:19.318Z,4.38
2022-10-08T05:06:50.759Z,3.63
2022-10-08T05:07:22.188Z,4.13
2022-10-08T05:07:53.575Z,5.03
2022-10-08T05:08:24.958Z,4.10
2022-10-08T05:08:57.265Z,4.22
2022-10-08T05:09:28.610Z,4.30
2022-10-08T05:10:00.090Z,4.95
2022-10-08T05:10:31.532Z,4.88
2022-10-08T05:11:02.983Z,4.15
2022-10-08T05:11:34.363Z,4.20
2022-10-08T05:12:05.749Z,4.55
2022-10-08T05:12:37.120Z,4.15
2022-10-08T05:13:08.474Z,4.43
2022-10-08T05:13:40.150Z,4.97
2022-10-08T05:14:11.544Z,4.78
2022-10-08T05:14:42.940Z,4.10
2022-10-08T05:15:14.465Z,4.13
2022-10-08T05:15:45.967Z,4.15
2022-10-08T05:16:17.884Z,4.25
2022-10-08T05:16:49.339Z,4.13
2022-10-08T05:17:20.727Z,3.50
2022-10-08T05:17:52.094Z,4.35
2022-10-08T05:18:23.443Z,4.75
2022-10-08T05:18:54.880Z,4.15
2022-10-08T05:19:26.269Z,3.88
2022-10-08T05:19:57.650Z,5.27
2022-10-08T05:20:29.088Z,4.70
2022-10-08T05:21:04.424Z,4.63
2022-10-08T05:21:36.424Z,4.63
2022-10-08T05:22:07.813Z,4.07
2022-10-08T05:22:39.204Z,4.20
2022-10-08T05:23:10.594Z,4.15
2022-10-08T05:23:42.994Z,4.47
2022-10-08T05:24:14.378Z,4.83
2022-10-08T05:24:45.768Z,4.72
2022-10-08T05:25:17.109Z,4.70
2022-10-08T05:25:48.586Z,4.40
2022-10-08T05:26:28.776Z,4.40
2022-10-08T05:27:12.964Z,4.18
2022-10-08T05:27:44.337Z,4.00
2022-10-08T05:28:15.790Z,4.50
2022-10-08T05:28:47.825Z,3.90
2022-10-08T05:29:19.271Z,5.55
2022-10-08T05:29:50.663Z,4.03
2022-10-08T05:30:22.248Z,4.82
2022-10-08T05:30:58.858Z,4.75
2022-10-08T05:31:30.806Z,4.43
2022-10-08T05:32:02.235Z,4.68
2022-10-08T05:32:33.631Z,3.97
2022-10-08T05:33:05.027Z,4.28
2022-10-08T05:33:36.911Z,4.68
2022-10-08T05:34:14.860Z,4.30
2022-10-08T05:34:46.241Z,4.45
2022-10-08T05:35:17.628Z,4.68
2022-10-08T05:35:49.020Z,4.43
2022-10-08T05:36:25.421Z,4.47
2022-10-08T05:36:56.859Z,4.63
2022-10-08T05:37:28.247Z,3.97
2022-10-08T05:37:59.580Z,3.97
2022-10-08T05:38:34.805Z,4.38
2022-10-08T05:39:06.753Z,4.40
2022-10-08T05:39:38.143Z,4.30
2022-10-08T05:40:09.784Z,4.47
2022-10-08T05:40:41.271Z,4.47
2022-10-08T05:41:26.324Z,4.55
2022-10-08T05:41:57.713Z,5.03
2022-10-08T05:42:29.154Z,3.57
2022-10-08T05:43:00.489Z,4.10
2022-10-08T05:43:31.869Z,4.45
2022-10-08T05:44:04.179Z,4.57
2022-10-08T05:44:37.727Z,4.25
2022-10-08T05:45:09.577Z,4.40
2022-10-08T05:45:48.785Z,4.75
2022-10-08T05:46:20.176Z,4.78
2022-10-08T05:46:51.638Z,4.70
2022-10-08T05:47:23.045Z,5.18
2022-10-08T05:47:54.431Z,4.63
2022-10-08T05:48:25.808Z,4.18
2022-10-08T05:48:58.223Z,3.90
2022-10-08T05:49:29.617Z,4.75
2022-10-08T05:50:00.996Z,4.13
2022-10-08T05:50:32.329Z,4.22
2022-10-08T05:51:07.664Z,4.57
2022-10-08T05:51:38.998Z,5.25
2022-10-08T05:52:10.692Z,4.60
2022-10-08T05:52:42.050Z,4.68
2022-10-08T05:53:13.462Z,4.10
2022-10-08T05:53:46.283Z,4.90
2022-10-08T05:54:18.289Z,4.53
2022-10-08T05:54:49.804Z,4.65
2022-10-08T05:55:21.315Z,3.67
2022-10-08T05:55:59.043Z,4.17
2022-10-08T05:56:30.427Z,4.35
2022-10-08T05:57:01.815Z,3.72
2022-10-08T05:57:33.254Z,3.83
2022-10-08T05:58:04.639Z,4.43
2022-10-08T05:58:36.797Z,4.35
2022-10-08T05:59:12.138Z,3.78
2022-10-08T05:59:43.509Z,3.83
2022-10-08T06:00:15.052Z,4.25
2022-10-08T06:00:55.960Z,4.43
2022-10-08T06:01:28.630Z,4.63
2022-10-08T06:02:00.012Z,4.68
2022-10-08T06:02:31.389Z,4.05
2022-10-08T06:03:02.840Z,3.67
2022-10-08T06:03:34.322Z,4.20
2022-10-08T06:04:08.933Z,4.13
2022-10-08T06:04:40.653Z,4.57
2022-10-08T06:05:12.152Z,3.90
2022-10-08T06:05:43.658Z,4.47
2022-10-08T06:06:15.038Z,4.35
2022-10-08T06:06:46.581Z,4.50
2022-10-08T06:07:17.915Z,4.60
2022-10-08T06:07:49.265Z,3.75
2022-10-08T06:08:21.156Z,4.22
2022-10-08T06:08:53.366Z,4.50
2022-10-08T06:09:24.747Z,3.38
2022-10-08T06:09:56.180Z,4.28
2022-10-08T06:10:27.613Z,4.45
2022-10-08T06:10:59.264Z,4.55
2022-10-08T06:11:31.978Z,4.15
2022-10-08T06:12:03.367Z,4.38
2022-10-08T06:12:34.713Z,3.90
2022-10-08T06:13:06.141Z,5.13
2022-10-08T06:13:37.786Z,4.22
2022-10-08T06:14:10.696Z,4.28
2022-10-08T06:14:42.046Z,4.68
2022-10-08T06:15:13.467Z,3.85
2022-10-08T06:15:53.900Z,4.05
2022-10-08T06:16:25.658Z,4.15
2022-10-08T06:16:57.101Z,4.45
2022-10-08T06:17:28.488Z,4.03
2022-10-08T06:17:59.872Z,4.60
2022-10-08T06:18:32.648Z,4.63
2022-10-08T06:19:04.539Z,3.70
2022-10-08T06:19:35.982Z,4.53
2022-10-08T06:20:07.516Z,3.80
2022-10-08T06:20:38.903Z,4.22
2022-10-08T06:21:11.668Z,4.90
2022-10-08T06:21:43.057Z,4.22
2022-10-08T06:22:14.441Z,3.80
2022-10-08T06:22:46.066Z,4.38
2022-10-08T06:23:18.197Z,4.30
2022-10-08T06:23:50.749Z,4.50
2022-10-08T06:24:22.093Z,3.72
2022-10-08T06:24:53.525Z,3.78
2022-10-08T06:25:24.913Z,4.85
2022-10-08T06:25:56.325Z,4.10
2022-10-08T06:26:34.443Z,4.15
2022-10-08T06:27:06.899Z,4.40
2022-10-08T06:27:38.252Z,3.95
2022-10-08T06:28:09.726Z,3.78
2022-10-08T06:28:41.313Z,3.60
2022-10-08T06:29:14.860Z,5.20
2022-10-08T06:29:46.245Z,4.57
2022-10-08T06:30:17.677Z,3.83
2022-10-08T06:30:49.065Z,4.80
2022-10-08T06:31:20.582Z,3.88
2022-10-08T06:31:52.156Z,4.40
2022-10-08T06:32:23.591Z,4.80
2022-10-08T06:32:54.968Z,3.83
2022-10-08T06:33:26.606Z,4.63
2022-10-08T06:33:58.406Z,4.40
2022-10-08T06:34:29.837Z,4.20
2022-10-08T06:35:01.278Z,4.18
2022-10-08T06:35:32.662Z,3.92
2022-10-08T06:36:08.421Z,4.18
2022-10-08T06:36:39.893Z,4.25
2022-10-08T06:37:11.279Z,4.05
2022-10-08T06:37:42.661Z,5.10
2022-10-08T06:38:14.063Z,4.60
2022-10-08T06:38:55.672Z,4.90
2022-10-08T06:39:27.172Z,4.20
2022-10-08T06:39:58.557Z,4.30
2022-10-08T06:40:33.262Z,4.20
2022-10-08T06:41:04.753Z,4.30
2022-10-08T06:41:36.355Z,4.78
2022-10-08T06:42:07.735Z,4.40
2022-10-08T06:42:39.111Z,4.70
2022-10-08T06:43:14.131Z,4.00
2022-10-08T06:43:45.722Z,4.28
2022-10-08T06:44:17.096Z,3.80
2022-10-08T06:44:48.547Z,4.65
2022-10-08T06:45:19.950Z,4.15
2022-10-08T06:45:51.381Z,4.10
2022-10-08T06:46:22.870Z,4.25
2022-10-08T06:46:54.386Z,3.92
2022-10-08T06:47:25.781Z,3.88
2022-10-08T06:47:57.137Z,4.13
2022-10-08T06:48:28.508Z,4.75
2022-10-08T06:49:00.665Z,4.40
2022-10-08T06:49:32.007Z,3.97
2022-10-08T06:50:03.604Z,3.95
2022-10-08T06:50:35.544Z,4.22
2022-10-08T06:51:08.104Z,5.05
2022-10-08T06:51:39.443Z,4.72
2022-10-08T06:52:10.825Z,4.07
2022-10-08T06:52:42.190Z,4.57
2022-10-08T06:53:13.549Z,4.23
2022-10-08T06:53:45.951Z,3.75
2022-10-08T06:54:17.338Z,4.18
2022-10-08T06:54:48.725Z,4.72
2022-10-08T06:55:20.167Z,4.53
2022-10-08T06:55:55.691Z,4.55
2022-10-08T06:56:27.075Z,4.60
2022-10-08T06:56:58.500Z,3.88
2022-10-08T06:57:29.838Z,4.70
2022-10-08T06:58:01.611Z,3.67
2022-10-08T06:58:34.787Z,4.20
2022-10-08T06:59:06.372Z,4.28
2022-10-08T06:59:37.756Z,3.83
2022-10-08T07:00:09.451Z,3.70
2022-10-08T07:00:40.972Z,4.30
2022-10-08T07:01:14.117Z,3.65
2022-10-08T07:01:45.679Z,4.57
2022-10-08T07:02:17.181Z,3.97
2022-10-08T07:02:49.106Z,3.72
2022-10-08T07:03:20.837Z,3.95
2022-10-08T07:03:56.180Z,3.78
2022-10-08T07:04:27.549Z,4.32
2022-10-08T07:04:58.942Z,4.30
2022-10-08T07:05:30.321Z,4.05
2022-10-08T07:06:02.803Z,3.97
2022-10-08T07:06:34.332Z,4.00
2022-10-08T07:07:05.773Z,4.20
2022-10-08T07:07:37.146Z,4.13
2022-10-08T07:08:08.534Z,3.72
2022-10-08T07:08:39.981Z,3.83
2022-10-08T07:09:11.408Z,4.15
2022-10-08T07:09:42.736Z,4.15
2022-10-08T07:10:18.238Z,3.88
2022-10-08T07:10:49.924Z,3.83
2022-10-08T07:11:21.979Z,4.22
2022-10-08T07:11:53.409Z,4.38
2022-10-08T07:12:24.812Z,3.75
2022-10-08T07:12:56.178Z,3.78
2022-10-08T07:13:28.439Z,4.00
2022-10-08T07:14:00.641Z,4.30
2022-10-08T07:14:32.019Z,4.25
2022-10-08T07:15:03.926Z,4.38
2022-10-08T07:15:35.321Z,4.05
2022-10-08T07:16:18.249Z,4.00
2022-10-08T07:16:52.120Z,3.92
2022-10-08T07:17:23.518Z,4.70
2022-10-08T07:17:54.889Z,3.95
2022-10-08T07:18:26.274Z,3.45
2022-10-08T07:18:58.117Z,3.88
2022-10-08T07:19:29.456Z,4.18
2022-10-08T07:20:00.821Z,4.43
2022-10-08T07:20:32.227Z,4.20
2022-10-08T07:21:04.229Z,4.05
2022-10-08T07:21:35.616Z,4.80
2022-10-08T07:22:07.000Z,4.03
2022-10-08T07:22:38.385Z,3.92